Time;durP1;ratioP1;P1;durP2;ratioP2;P2;SDS_P1;SDS_P2;PMS_P1;PMS_P2;Temp;Humidity;BMP_temperature;BMP_pressure;BME280_temperature;BME280_humidity;BME280_pressure;Samples;Min_cycle;Max_cycle;Signal;HPM_P1;HPM_P2
2021/08/17 00:01:14;;;;;;;29.45;5.07;;;13.40;99.90;;;;;;6255297;22;20037;-88
2021/08/17 00:03:40;;;;;;;33.22;5.70;;;13.40;99.90;;;;;;6223676;22;20007;-88
2021/08/17 00:06:07;;;;;;;29.17;5.88;;;13.40;99.90;;;;;;6229323;22;20038;-87
2021/08/17 00:08:33;;;;;;;25.20;5.60;;;13.40;99.90;;;;;;6224841;22;20017;-89
2021/08/17 00:10:59;;;;;;;32.33;5.40;;;13.40;99.90;;;;;;6223889;22;20011;-88
2021/08/17 00:13:25;;;;;;;24.33;4.85;;;13.40;99.90;;;;;;6276462;22;20102;-86
2021/08/17 00:15:52;;;;;;;27.50;5.43;;;13.40;99.90;;;;;;6249302;22;20217;-88
2021/08/17 00:18:18;;;;;;;30.35;5.90;;;13.40;99.90;;;;;;6224301;22;20045;-90
2021/08/17 00:20:44;;;;;;;25.45;5.70;;;13.30;99.90;;;;;;6202842;22;20059;-87
2021/08/17 00:23:10;;;;;;;20.50;4.88;;;13.30;99.90;;;;;;6249099;22;20341;-89
2021/08/17 00:25:36;;;;;;;31.38;5.75;;;13.30;99.90;;;;;;6249822;22;20258;-86
2021/08/17 00:28:03;;;;;;;36.95;5.88;;;13.30;99.90;;;;;;6249285;22;20010;-86
2021/08/17 00:30:29;;;;;;;27.27;5.72;;;13.30;99.90;;;;;;6273938;22;20063;-91
2021/08/17 00:32:56;;;;;;;27.30;5.32;;;13.30;99.90;;;;;;6197815;22;20403;-87
2021/08/17 00:35:25;;;;;;;25.83;5.30;;;13.30;99.90;;;;;;6249961;22;20015;-86
2021/08/17 00:37:52;;;;;;;25.58;4.78;;;13.20;99.90;;;;;;6196703;22;20078;-87
2021/08/17 00:40:18;;;;;;;27.10;4.97;;;13.20;99.90;;;;;;6248344;22;20015;-87
2021/08/17 00:42:47;;;;;;;20.17;4.68;;;13.20;99.90;;;;;;6250300;22;20011;-86
2021/08/17 00:45:27;;;;;;;20.80;4.80;;;13.20;99.90;;;;;;6223184;22;20043;-88
2021/08/17 00:47:57;;;;;;;22.58;4.68;;;13.20;99.90;;;;;;6301532;22;20068;-86
2021/08/17 00:50:25;;;;;;;27.77;5.25;;;13.10;99.90;;;;;;6223091;22;20520;-87
2021/08/17 00:52:51;;;;;;;22.45;4.65;;;13.20;99.90;;;;;;6248096;22;20022;-87
2021/08/17 00:55:18;;;;;;;15.88;4.13;;;13.10;99.90;;;;;;6246127;22;20019;-86
2021/08/17 00:57:47;;;;;;;20.73;4.82;;;13.10;99.90;;;;;;6245512;22;20007;-87
2021/08/17 01:00:14;;;;;;;19.52;4.45;;;13.10;99.90;;;;;;6255372;22;20006;-89
2021/08/17 01:02:41;;;;;;;16.00;3.95;;;13.10;99.90;;;;;;6250600;22;20048;-90
2021/08/17 01:05:08;;;;;;;16.30;4.15;;;13.10;99.90;;;;;;6287079;22;20115;-87
2021/08/17 01:07:34;;;;;;;25.38;4.85;;;13.00;99.90;;;;;;6273942;22;20065;-87
2021/08/17 01:10:02;;;;;;;15.77;4.25;;;13.00;99.90;;;;;;6246037;22;20383;-87
2021/08/17 01:12:28;;;;;;;16.85;4.05;;;13.00;99.90;;;;;;6246927;22;20011;-87
2021/08/17 01:14:54;;;;;;;18.73;3.80;;;13.00;99.90;;;;;;6274188;22;20011;-90
2021/08/17 01:17:23;;;;;;;16.10;4.22;;;12.90;99.90;;;;;;6197087;22;20099;-90
2021/08/17 01:19:49;;;;;;;14.82;4.00;;;12.90;99.90;;;;;;6245935;22;20030;-88
2021/08/17 01:22:16;;;;;;;17.67;3.78;;;12.90;99.90;;;;;;6196745;22;20015;-87
2021/08/17 01:24:47;;;;;;;26.42;4.35;;;12.90;99.90;;;;;;6270538;22;20321;-89
2021/08/17 01:27:14;;;;;;;15.85;4.18;;;12.80;99.90;;;;;;6194688;22;20007;-87
2021/08/17 01:29:42;;;;;;;20.20;3.88;;;12.80;99.90;;;;;;6271019;22;20055;-88
2021/08/17 01:32:15;;;;;;;25.52;4.70;;;12.80;99.90;;;;;;6245866;22;20189;-88
2021/08/17 01:34:47;;;;;;;23.95;4.10;;;12.70;99.90;;;;;;6246798;22;20033;-88
2021/08/17 01:37:14;;;;;;;19.40;3.65;;;12.70;99.90;;;;;;6222567;22;20017;-88
2021/08/17 01:39:40;;;;;;;15.88;3.90;;;12.60;99.90;;;;;;6256872;22;20086;-89
2021/08/17 01:42:06;;;;;;;16.48;4.03;;;12.60;99.90;;;;;;6222840;22;20468;-88
2021/08/17 01:44:31;;;;;;;14.30;4.22;;;12.60;99.90;;;;;;6245177;22;20045;-89
2021/08/17 01:51:02;;;;;;;18.48;3.53;;;12.50;99.90;;;;;;6230236;22;20452;-87
2021/08/17 01:53:35;;;;;;;17.20;3.53;;;12.50;99.90;;;;;;6222205;22;20478;-87
2021/08/17 01:56:13;;;;;;;17.08;3.42;;;12.40;99.90;;;;;;6220304;22;20019;-88
2021/08/17 01:58:46;;;;;;;20.83;4.15;;;12.40;99.90;;;;;;6247526;22;20027;-89
2021/08/17 02:01:19;;;;;;;16.70;4.00;;;12.40;99.90;;;;;;6222850;22;20086;-88
2021/08/17 02:03:46;;;;;;;14.20;3.72;;;12.40;99.90;;;;;;6271705;22;20381;-87
2021/08/17 02:06:12;;;;;;;21.67;4.13;;;12.30;99.90;;;;;;6269346;22;20019;-88
2021/08/17 02:08:38;;;;;;;16.30;3.72;;;12.30;99.90;;;;;;6269790;22;20034;-87
2021/08/17 02:11:04;;;;;;;17.45;3.92;;;12.30;99.90;;;;;;6243737;22;20065;-87
2021/08/17 02:13:30;;;;;;;17.98;4.20;;;12.40;99.90;;;;;;6270885;22;20015;-86
2021/08/17 02:16:00;;;;;;;18.88;4.18;;;12.40;99.90;;;;;;6243828;22;20021;-88
2021/08/17 02:18:35;;;;;;;22.38;4.63;;;12.40;99.90;;;;;;6202620;22;20019;-87
2021/08/17 02:21:03;;;;;;;19.05;4.15;;;12.50;99.90;;;;;;6240285;22;20019;-87
2021/08/17 02:23:31;;;;;;;19.08;4.20;;;12.60;99.90;;;;;;6245607;22;20011;-87
2021/08/17 02:25:57;;;;;;;20.00;3.97;;;12.60;99.90;;;;;;6244088;22;20011;-87
2021/08/17 02:28:26;;;;;;;18.02;3.88;;;12.60;99.90;;;;;;6246315;22;20086;-86
2021/08/17 02:30:52;;;;;;;19.42;4.28;;;12.60;99.90;;;;;;6269888;22;20360;-88
2021/08/17 02:33:19;;;;;;;20.73;4.35;;;12.70;99.90;;;;;;6246270;22;20015;-87
2021/08/17 02:35:45;;;;;;;16.83;3.45;;;12.70;99.90;;;;;;6223046;22;20367;-89
2021/08/17 02:38:12;;;;;;;20.27;3.90;;;12.70;99.90;;;;;;6221373;22;20011;-88
2021/08/17 02:40:39;;;;;;;22.88;4.63;;;12.70;99.90;;;;;;6247762;22;20007;-87
2021/08/17 02:43:05;;;;;;;13.30;4.50;;;12.70;99.90;;;;;;6273969;22;20015;-87
2021/08/17 02:45:31;;;;;;;16.65;3.55;;;12.70;99.90;;;;;;6247460;22;20494;-87
2021/08/17 02:47:59;;;;;;;16.85;4.07;;;12.70;99.90;;;;;;6245995;22;20011;-86
2021/08/17 02:50:25;;;;;;;19.70;3.85;;;12.70;99.90;;;;;;6245638;22;20007;-87
2021/08/17 02:52:52;;;;;;;13.70;3.85;;;12.70;99.90;;;;;;6245637;22;20069;-87
2021/08/17 02:55:18;;;;;;;22.45;3.92;;;12.70;99.90;;;;;;6270164;22;20483;-87
2021/08/17 02:57:47;;;;;;;26.42;4.82;;;12.70;99.90;;;;;;6270073;22;20015;-86
2021/08/17 03:00:14;;;;;;;17.70;3.50;;;12.70;99.90;;;;;;6271328;22;20011;-86
2021/08/17 03:02:40;;;;;;;16.10;3.42;;;12.70;99.90;;;;;;6245171;22;20015;-88
2021/08/17 03:05:06;;;;;;;18.83;3.80;;;12.70;99.90;;;;;;6269301;22;20031;-86
2021/08/17 03:07:32;;;;;;;19.42;3.50;;;12.70;99.90;;;;;;6242767;22;20019;-86
2021/08/17 03:10:28;;;;;;;17.92;3.00;;;12.70;99.90;;;;;;6246097;22;20011;-89
2021/08/17 03:12:55;;;;;;;16.77;3.28;;;12.80;99.90;;;;;;6225961;22;20018;-87
2021/08/17 03:15:22;;;;;;;23.10;3.22;;;12.70;99.90;;;;;;6247208;22;20015;-90
2021/08/17 03:17:55;;;;;;;15.77;3.40;;;12.70;99.90;;;;;;6248883;22;20303;-89
2021/08/17 03:20:25;;;;;;;15.00;2.95;;;12.70;99.90;;;;;;6250170;22;20011;-87
2021/08/17 03:22:51;;;;;;;15.18;3.78;;;12.80;99.90;;;;;;6326414;22;20007;-88
2021/08/17 03:25:29;;;;;;;17.05;2.72;;;12.80;99.90;;;;;;6326100;22;20014;-88
2021/08/17 03:28:02;;;;;;;13.10;2.63;;;12.80;99.90;;;;;;6248642;22;20595;-88
2021/08/17 03:30:31;;;;;;;17.67;3.92;;;12.70;99.90;;;;;;6220228;22;20015;-87
2021/08/17 03:33:05;;;;;;;14.00;3.10;;;12.70;99.90;;;;;;6244891;22;20011;-88
2021/08/17 03:35:32;;;;;;;12.48;2.72;;;12.70;99.90;;;;;;6247039;22;20011;-86
2021/08/17 03:38:02;;;;;;;22.05;3.30;;;12.70;99.90;;;;;;6271342;22;20074;-86
2021/08/17 03:40:28;;;;;;;16.05;2.72;;;12.70;99.90;;;;;;6246526;22;20443;-88
2021/08/17 03:43:02;;;;;;;17.38;2.63;;;12.70;99.90;;;;;;6246626;22;20485;-87
2021/08/17 03:45:28;;;;;;;18.23;3.15;;;12.60;99.90;;;;;;6248243;22;20011;-87
2021/08/17 03:48:03;;;;;;;19.58;3.42;;;12.70;99.90;;;;;;6246098;22;20644;-88
2021/08/17 03:50:32;;;;;;;17.55;2.67;;;12.60;99.90;;;;;;6270779;22;20033;-87
2021/08/17 03:53:14;;;;;;;10.57;2.35;;;12.60;99.90;;;;;;6249755;22;20098;-88
2021/08/17 03:55:42;;;;;;;17.52;2.95;;;12.60;99.90;;;;;;6245484;22;20015;-88
2021/08/17 03:58:08;;;;;;;13.88;2.70;;;12.60;99.90;;;;;;6274283;22;20011;-88
2021/08/17 04:00:35;;;;;;;12.80;2.60;;;12.60;99.90;;;;;;6222786;22;20007;-87
2021/08/17 04:03:02;;;;;;;14.90;2.63;;;12.60;99.90;;;;;;6252087;22;20091;-86
2021/08/17 04:05:28;;;;;;;13.20;2.72;;;12.60;99.90;;;;;;6225829;22;20034;-89
2021/08/17 04:07:55;;;;;;;14.10;3.15;;;12.60;99.90;;;;;;6224785;22;20156;-91
2021/08/17 04:10:22;;;;;;;19.08;2.72;;;12.60;99.90;;;;;;6227789;22;20014;-87
2021/08/17 04:12:48;;;;;;;12.65;2.58;;;12.50;99.90;;;;;;6277529;22;20597;-86
2021/08/17 04:15:15;;;;;;;14.13;2.80;;;12.60;99.90;;;;;;6252002;22;20068;-90
2021/08/17 04:17:41;;;;;;;17.25;3.13;;;12.50;99.90;;;;;;6202050;22;20098;-88
2021/08/17 04:20:11;;;;;;;22.05;4.40;;;12.50;99.90;;;;;;6251855;22;20015;-90
2021/08/17 04:22:56;;;;;;;23.90;2.90;;;12.50;99.90;;;;;;6252200;22;20046;-88
2021/08/17 04:25:32;;;;;;;12.85;2.60;;;12.50;99.90;;;;;;6256378;22;20017;-89
2021/08/17 04:27:58;;;;;;;14.50;2.28;;;12.50;99.90;;;;;;6252241;22;20011;-87
2021/08/17 04:30:35;;;;;;;10.55;2.30;;;12.50;99.90;;;;;;6252683;22;20030;-88
2021/08/17 04:33:06;;;;;;;21.85;3.00;;;12.50;99.90;;;;;;6253974;22;20098;-87
2021/08/17 04:35:34;;;;;;;17.92;2.47;;;12.50;99.90;;;;;;6228197;22;20106;-89
2021/08/17 04:38:08;;;;;;;14.35;2.30;;;12.50;99.90;;;;;;6252256;22;20106;-88
2021/08/17 04:40:37;;;;;;;19.90;2.63;;;12.50;99.90;;;;;;6251137;22;20327;-88
2021/08/17 04:43:04;;;;;;;26.05;3.17;;;12.50;99.90;;;;;;6275568;22;20413;-90
2021/08/17 04:45:30;;;;;;;11.20;2.42;;;12.50;99.90;;;;;;6225419;22;20631;-88
2021/08/17 04:47:58;;;;;;;20.40;2.80;;;12.50;99.90;;;;;;6224551;22;20041;-87
2021/08/17 04:50:27;;;;;;;13.98;2.55;;;12.50;99.90;;;;;;6250114;22;20011;-89
2021/08/17 04:52:56;;;;;;;12.15;2.67;;;12.50;99.90;;;;;;6274921;22;20011;-90
2021/08/17 04:55:32;;;;;;;11.75;2.95;;;12.50;99.90;;;;;;6249899;22;20014;-88
2021/08/17 04:58:14;;;;;;;13.25;3.17;;;12.50;99.90;;;;;;6224986;22;20065;-91
2021/08/17 05:00:50;;;;;;;20.70;3.33;;;12.60;99.90;;;;;;6226455;22;20011;-88
2021/08/17 05:03:18;;;;;;;10.13;2.85;;;12.60;99.90;;;;;;6224803;22;20576;-90
2021/08/17 05:05:44;;;;;;;15.07;3.15;;;12.60;99.90;;;;;;6224917;22;20011;-90
2021/08/17 05:08:13;;;;;;;15.25;2.78;;;12.70;99.90;;;;;;6226135;22;20011;-89
2021/08/17 05:10:39;;;;;;;16.77;3.15;;;12.70;99.90;;;;;;6252189;22;20909;-88
2021/08/17 05:13:09;;;;;;;18.73;2.60;;;12.70;99.90;;;;;;6277776;22;20094;-88
2021/08/17 05:15:35;;;;;;;16.27;2.97;;;12.80;99.90;;;;;;6252620;22;20023;-90
2021/08/17 05:18:06;;;;;;;13.48;2.45;;;12.80;99.90;;;;;;6251542;22;20459;-88
2021/08/17 05:20:32;;;;;;;10.73;2.67;;;12.90;99.90;;;;;;6276454;22;20078;-89
2021/08/17 05:23:03;;;;;;;17.55;2.78;;;12.90;99.90;;;;;;6250745;22;20015;-87
2021/08/17 05:25:37;;;;;;;14.90;3.20;;;13.00;99.90;;;;;;6275454;22;20018;-88
2021/08/17 05:28:06;;;;;;;19.33;3.75;;;13.00;99.90;;;;;;6225583;22;20073;-88
2021/08/17 05:30:35;;;;;;;15.18;2.65;;;13.10;99.90;;;;;;6251086;22;20466;-90
2021/08/17 05:33:08;;;;;;;14.87;2.93;;;13.10;99.90;;;;;;6226820;22;20011;-89
2021/08/17 05:35:38;;;;;;;15.65;3.20;;;13.20;99.90;;;;;;6227027;22;20133;-87
2021/08/17 05:38:22;;;;;;;17.08;3.65;;;13.20;99.90;;;;;;6225552;22;20018;-91
2021/08/17 05:40:51;;;;;;;15.27;4.03;;;13.30;99.90;;;;;;6250308;22;20015;-88
2021/08/17 05:43:29;;;;;;;15.52;3.13;;;13.30;99.90;;;;;;6253084;22;20012;-93
2021/08/17 05:46:03;;;;;;;15.20;3.60;;;13.30;99.90;;;;;;6287568;22;20436;-89
2021/08/17 05:48:31;;;;;;;18.55;3.92;;;13.40;99.90;;;;;;6256158;22;20042;-89
2021/08/17 05:51:01;;;;;;;15.88;3.50;;;13.40;99.90;;;;;;6250491;22;20094;-88
2021/08/17 05:53:27;;;;;;;19.55;3.63;;;13.50;99.90;;;;;;6275002;22;20011;-88
2021/08/17 05:55:56;;;;;;;13.30;3.38;;;13.50;99.90;;;;;;6225496;22;20156;-88
2021/08/17 05:58:25;;;;;;;22.08;4.38;;;13.50;99.90;;;;;;6250457;22;20049;-88
2021/08/17 06:00:56;;;;;;;18.42;4.07;;;13.50;99.90;;;;;;6250051;22;20015;-88
2021/08/17 06:03:25;;;;;;;19.38;4.35;;;13.70;99.90;;;;;;6224754;22;20015;-89
2021/08/17 06:05:51;;;;;;;16.98;4.20;;;13.70;99.90;;;;;;6249502;22;20098;-88
2021/08/17 06:08:55;;;;;;;15.38;4.38;;;13.80;99.90;;;;;;6225067;22;20018;-89
2021/08/17 06:11:44;;;;;;;15.48;4.68;;;13.90;99.90;;;;;;6226288;22;20016;-88
2021/08/17 06:14:17;;;;;;;18.73;4.20;;;13.90;99.90;;;;;;6247001;22;20015;-89
2021/08/17 06:16:45;;;;;;;19.45;4.45;;;13.90;99.90;;;;;;6249114;22;20012;-89
2021/08/17 06:19:21;;;;;;;19.05;4.18;;;13.90;99.90;;;;;;6221408;22;20211;-88
2021/08/17 06:21:51;;;;;;;17.50;4.50;;;14.00;99.90;;;;;;6249114;22;20026;-87
2021/08/17 06:24:23;;;;;;;19.33;4.67;;;14.10;99.90;;;;;;6249627;22;20019;-89
2021/08/17 06:26:54;;;;;;;16.45;4.78;;;14.10;99.90;;;;;;6247687;22;20302;-88
2021/08/17 06:29:20;;;;;;;15.85;4.95;;;14.20;99.90;;;;;;6197274;22;20016;-88
2021/08/17 06:31:49;;;;;;;17.63;4.53;;;14.30;99.90;;;;;;6247924;22;20015;-89
2021/08/17 06:34:28;;;;;;;22.60;5.07;;;14.30;99.90;;;;;;6246621;22;20034;-89
2021/08/17 06:36:58;;;;;;;17.10;4.80;;;14.40;99.90;;;;;;6251790;22;20022;-87
2021/08/17 06:39:25;;;;;;;13.07;4.38;;;14.50;99.90;;;;;;6225676;22;20011;-88
2021/08/17 06:42:03;;;;;;;17.70;4.63;;;14.60;99.90;;;;;;6227579;22;20448;-87
2021/08/17 06:44:39;;;;;;;12.80;5.00;;;14.60;99.90;;;;;;6229569;22;20019;-89
2021/08/17 06:47:09;;;;;;;15.13;3.95;;;14.70;99.90;;;;;;6253496;22;20014;-88
2021/08/17 06:49:35;;;;;;;15.65;4.75;;;14.70;99.90;;;;;;6251434;22;20031;-87
2021/08/17 06:52:04;;;;;;;16.85;4.47;;;14.80;99.90;;;;;;6277285;22;20332;-89
2021/08/17 06:54:34;;;;;;;11.88;4.15;;;14.80;99.90;;;;;;6251438;22;20023;-88
2021/08/17 06:57:03;;;;;;;13.20;4.70;;;14.80;99.90;;;;;;6224265;22;20043;-90
2021/08/17 06:59:45;;;;;;;16.15;4.20;;;14.80;99.90;;;;;;6230065;22;20459;-89
2021/08/17 07:02:14;;;;;;;15.82;4.32;;;14.80;99.90;;;;;;6249180;22;20011;-89
2021/08/17 07:04:40;;;;;;;17.17;5.10;;;14.90;99.90;;;;;;6250126;22;20030;-88
2021/08/17 07:07:16;;;;;;;15.18;4.65;;;14.80;99.90;;;;;;6250081;22;20640;-88
2021/08/17 07:09:51;;;;;;;17.75;4.80;;;14.90;99.90;;;;;;6226020;22;20491;-89
2021/08/17 07:12:29;;;;;;;17.27;4.70;;;15.00;99.90;;;;;;6275441;22;20015;-87
2021/08/17 07:15:16;;;;;;;17.33;5.13;;;15.00;99.90;;;;;;6277731;22;20033;-88
2021/08/17 07:17:46;;;;;;;12.70;4.43;;;15.10;99.90;;;;;;6255429;22;20569;-89
2021/08/17 07:20:18;;;;;;;15.45;5.18;;;15.20;99.90;;;;;;6199331;22;20054;-88
2021/08/17 07:22:45;;;;;;;13.38;4.72;;;15.20;99.90;;;;;;6249136;22;20015;-86
2021/08/17 07:25:18;;;;;;;16.17;4.18;;;15.40;99.90;;;;;;6275776;22;20084;-89
2021/08/17 07:27:44;;;;;;;13.85;4.57;;;15.50;99.90;;;;;;6225874;22;20031;-89
2021/08/17 07:30:12;;;;;;;18.92;5.70;;;15.50;99.90;;;;;;6250928;22;20349;-86
2021/08/17 07:32:43;;;;;;;13.32;4.30;;;15.60;99.90;;;;;;6252248;22;20015;-87
2021/08/17 07:35:17;;;;;;;10.55;4.38;;;15.60;99.70;;;;;;6275830;22;20011;-91
2021/08/17 07:37:54;;;;;;;18.50;4.70;;;15.70;99.60;;;;;;6276436;22;20015;-88
2021/08/17 07:40:22;;;;;;;14.98;4.78;;;15.70;99.50;;;;;;6272652;22;20015;-85
2021/08/17 07:42:51;;;;;;;16.52;5.05;;;15.80;99.40;;;;;;6251078;22;20356;-90
2021/08/17 07:45:17;;;;;;;11.77;4.50;;;15.80;99.30;;;;;;6251921;22;20106;-87
2021/08/17 07:47:47;;;;;;;13.07;5.07;;;15.80;99.30;;;;;;6224032;22;20401;-88
2021/08/17 07:50:14;;;;;;;12.38;4.97;;;15.90;99.30;;;;;;6249705;22;20098;-89
2021/08/17 07:52:40;;;;;;;10.38;4.30;;;15.90;99.30;;;;;;6249546;22;20061;-86
2021/08/17 07:55:10;;;;;;;15.05;4.65;;;16.00;99.30;;;;;;6275985;22;20069;-89
2021/08/17 07:57:38;;;;;;;15.40;4.82;;;16.00;99.30;;;;;;6275688;22;20359;-87
2021/08/17 08:00:18;;;;;;;16.15;4.93;;;16.10;99.50;;;;;;6226669;22;20016;-88
2021/08/17 08:02:48;;;;;;;17.52;5.03;;;16.20;99.20;;;;;;6252161;22;20011;-87
2021/08/17 08:05:14;;;;;;;16.48;5.43;;;16.20;99.20;;;;;;6202399;22;20031;-87
2021/08/17 08:07:45;;;;;;;15.20;5.07;;;16.40;99.30;;;;;;6278724;22;20076;-89
2021/08/17 08:10:12;;;;;;;14.73;5.35;;;16.40;99.10;;;;;;6257361;22;19999;-92
2021/08/17 08:12:39;;;;;;;16.55;5.47;;;16.50;99.30;;;;;;6209815;22;20019;-88
2021/08/17 08:15:12;;;;;;;18.55;5.80;;;16.50;99.30;;;;;;6256761;22;20064;-88
2021/08/17 08:17:41;;;;;;;15.95;5.60;;;16.50;99.30;;;;;;6252865;22;20007;-87
2021/08/17 08:20:14;;;;;;;14.05;6.07;;;16.50;99.20;;;;;;6252174;22;20464;-88
2021/08/17 08:23:05;;;;;;;17.85;6.07;;;16.50;99.10;;;;;;6255656;22;20007;-87
2021/08/17 08:25:32;;;;;;;16.85;6.30;;;16.50;99.20;;;;;;6276972;22;20011;-89
2021/08/17 08:27:58;;;;;;;14.13;6.32;;;16.50;99.30;;;;;;6227553;22;20061;-86
2021/08/17 08:30:30;;;;;;;21.00;6.68;;;16.50;99.20;;;;;;6277940;22;20007;-90
2021/08/17 08:32:59;;;;;;;15.70;6.90;;;16.50;99.20;;;;;;6227622;22;20019;-92
2021/08/17 08:35:25;;;;;;;18.90;6.97;;;16.50;99.30;;;;;;6277429;22;20003;-89
2021/08/17 08:37:57;;;;;;;17.73;7.28;;;16.50;99.20;;;;;;6252350;22;20082;-88
2021/08/17 08:40:25;;;;;;;20.30;7.20;;;16.50;99.10;;;;;;6251586;22;20439;-87
2021/08/17 08:43:03;;;;;;;16.35;7.75;;;16.50;99.10;;;;;;6254358;22;20098;-89
2021/08/17 08:45:33;;;;;;;22.70;7.95;;;16.40;99.10;;;;;;6251383;22;20019;-88
2021/08/17 08:48:04;;;;;;;23.67;8.10;;;16.40;99.20;;;;;;6275868;22;20339;-87
2021/08/17 08:50:36;;;;;;;18.02;7.80;;;16.50;99.30;;;;;;6303466;22;20015;-89
2021/08/17 08:53:08;;;;;;;23.40;7.85;;;16.50;99.40;;;;;;6251170;22;20012;-89
2021/08/17 08:55:37;;;;;;;25.00;8.65;;;16.50;99.40;;;;;;6226603;22;20118;-86
2021/08/17 08:58:34;;;;;;;25.67;9.07;;;16.60;99.40;;;;;;6276903;22;20021;-89
2021/08/17 09:01:10;;;;;;;20.42;9.07;;;16.70;99.30;;;;;;6251246;22;20011;-87
2021/08/17 09:03:44;;;;;;;22.00;8.90;;;16.80;99.30;;;;;;6250159;22;20256;-87
2021/08/17 09:06:30;;;;;;;24.48;9.95;;;16.80;99.20;;;;;;6252366;22;20019;-89
2021/08/17 09:09:10;;;;;;;24.20;9.45;;;16.90;99.00;;;;;;6249547;22;20007;-87
2021/08/17 09:11:40;;;;;;;18.83;9.02;;;16.90;99.00;;;;;;6251804;22;20076;-89
2021/08/17 09:14:30;;;;;;;22.83;9.20;;;16.90;99.00;;;;;;6252222;22;20019;-86
2021/08/17 09:17:00;;;;;;;24.55;10.00;;;17.10;99.00;;;;;;6279303;22;20011;-87
2021/08/17 09:19:31;;;;;;;23.98;10.07;;;17.20;98.80;;;;;;6277487;22;20064;-87
2021/08/17 09:22:10;;;;;;;22.00;9.20;;;17.20;98.70;;;;;;6277096;22;20083;-86
2021/08/17 09:24:36;;;;;;;27.13;9.98;;;17.30;98.40;;;;;;6279081;22;20102;-85
2021/08/17 09:27:15;;;;;;;19.00;9.20;;;17.30;98.10;;;;;;6251076;22;20020;-88
2021/08/17 09:29:44;;;;;;;22.00;9.05;;;17.30;98.00;;;;;;6286925;22;20061;-89
2021/08/17 09:32:13;;;;;;;21.65;9.43;;;17.30;97.90;;;;;;6278305;22;20389;-86
2021/08/17 09:34:39;;;;;;;20.92;9.60;;;17.40;97.90;;;;;;6277293;22;20014;-86
2021/08/17 09:37:09;;;;;;;23.30;9.85;;;17.40;97.70;;;;;;6225045;22;20031;-86
2021/08/17 09:39:47;;;;;;;19.73;10.10;;;17.40;97.70;;;;;;6251357;22;20034;-87
2021/08/17 09:42:14;;;;;;;22.50;10.02;;;17.40;98.00;;;;;;6274910;22;20007;-86
2021/08/17 09:44:42;;;;;;;23.25;10.57;;;17.40;97.70;;;;;;6251258;22;20317;-89
2021/08/17 09:47:08;;;;;;;25.25;10.95;;;17.50;97.80;;;;;;6274064;22;20017;-85
2021/08/17 09:49:45;;;;;;;23.15;10.20;;;17.50;97.80;;;;;;6229067;22;20034;-86
2021/08/17 09:52:15;;;;;;;24.48;10.20;;;17.50;97.60;;;;;;6276168;22;20018;-86
2021/08/17 09:54:45;;;;;;;28.05;11.05;;;17.60;97.70;;;;;;6275665;22;20058;-91
2021/08/17 09:57:15;;;;;;;24.30;10.82;;;17.60;97.50;;;;;;6200730;22;20094;-84
2021/08/17 09:59:46;;;;;;;22.38;10.70;;;17.50;97.50;;;;;;6249892;22;20015;-88
2021/08/17 10:02:15;;;;;;;20.90;11.20;;;17.50;97.30;;;;;;6250430;22;20015;-87
2021/08/17 10:04:50;;;;;;;26.88;11.45;;;17.40;97.40;;;;;;6276120;22;20074;-86
2021/08/17 10:07:18;;;;;;;24.55;11.30;;;17.40;97.80;;;;;;6249766;22;20084;-88
2021/08/17 10:09:53;;;;;;;30.17;12.15;;;17.40;97.70;;;;;;6275549;22;20011;-87
2021/08/17 10:12:26;;;;;;;27.67;10.95;;;17.50;97.70;;;;;;6199250;22;20090;-87
2021/08/17 10:14:52;;;;;;;20.95;11.55;;;17.60;97.10;;;;;;6301157;22;20038;-87
2021/08/17 10:17:18;;;;;;;24.77;11.20;;;17.70;96.90;;;;;;6223882;22;20041;-87
2021/08/17 10:19:44;;;;;;;26.50;11.40;;;17.80;96.70;;;;;;6224130;22;20018;-87
2021/08/17 10:22:11;;;;;;;30.00;12.30;;;17.80;96.60;;;;;;6273279;22;20019;-84
2021/08/17 10:24:40;;;;;;;27.58;12.40;;;17.80;96.80;;;;;;6249712;22;20018;-86
2021/08/17 10:27:26;;;;;;;26.10;12.45;;;17.80;96.70;;;;;;6276174;22;20090;-85
2021/08/17 10:30:04;;;;;;;26.05;12.65;;;17.90;95.90;;;;;;6285719;22;20013;-87
2021/08/17 10:32:48;;;;;;;25.20;12.23;;;17.90;96.00;;;;;;6274480;22;20019;-87
2021/08/17 10:35:50;;;;;;;31.35;13.02;;;18.00;96.10;;;;;;6274906;22;20007;-87
2021/08/17 10:38:23;;;;;;;26.23;13.35;;;18.10;96.10;;;;;;6274926;22;20044;-87
2021/08/17 10:40:52;;;;;;;27.55;13.75;;;18.20;95.80;;;;;;6284609;22;20443;-88
2021/08/17 10:43:20;;;;;;;27.23;13.18;;;18.30;95.50;;;;;;6275488;22;20019;-87
2021/08/17 10:46:01;;;;;;;23.25;12.95;;;18.40;95.00;;;;;;6250408;22;20011;-87
2021/08/17 10:48:48;;;;;;;25.40;12.65;;;18.50;94.80;;;;;;6302142;22;20019;-87
2021/08/17 10:51:39;;;;;;;30.30;12.55;;;18.50;94.40;;;;;;6248092;22;20098;-87
2021/08/17 10:54:08;;;;;;;26.42;12.90;;;18.40;94.50;;;;;;6275715;22;20023;-88
2021/08/17 10:56:44;;;;;;;24.30;13.25;;;18.30;94.60;;;;;;6275371;22;20361;-88
2021/08/17 10:59:13;;;;;;;24.77;12.43;;;18.30;94.90;;;;;;6249130;22;20019;-88
2021/08/17 11:01:46;;;;;;;24.85;12.98;;;18.20;95.20;;;;;;6223677;22;20200;-91
2021/08/17 11:04:40;;;;;;;25.33;12.23;;;18.10;95.20;;;;;;6248040;22;20018;-88
2021/08/17 11:07:30;;;;;;;24.50;11.77;;;18.00;95.30;;;;;;6274135;22;20103;-86
2021/08/17 11:10:10;;;;;;;23.15;12.02;;;18.00;95.20;;;;;;6275025;22;20078;-89
2021/08/17 11:12:39;;;;;;;21.60;10.80;;;18.00;95.40;;;;;;6249107;22;20023;-89
2021/08/17 11:15:09;;;;;;;21.05;9.98;;;18.10;95.30;;;;;;6249261;22;20073;-87
2021/08/17 11:17:36;;;;;;;18.55;10.25;;;18.20;94.50;;;;;;6223603;22;20516;-86
2021/08/17 11:20:10;;;;;;;20.02;10.15;;;18.20;93.80;;;;;;6248060;22;20007;-86
2021/08/17 11:22:37;;;;;;;20.90;9.82;;;18.20;93.80;;;;;;6274774;22;20008;-86
2021/08/17 11:25:10;;;;;;;21.65;9.90;;;18.30;93.20;;;;;;6199490;22;20015;-87
2021/08/17 11:27:44;;;;;;;18.17;9.63;;;18.30;92.80;;;;;;6225364;22;20360;-85
2021/08/17 11:30:16;;;;;;;20.20;9.63;;;18.30;92.30;;;;;;6249577;22;20072;-84
2021/08/17 11:32:54;;;;;;;25.50;10.32;;;18.40;92.50;;;;;;6277830;22;20011;-88
2021/08/17 11:35:23;;;;;;;17.75;9.43;;;18.40;92.60;;;;;;6253085;22;20024;-86
2021/08/17 11:37:51;;;;;;;17.42;9.43;;;18.50;92.70;;;;;;6277258;22;20011;-87
2021/08/17 11:40:22;;;;;;;22.02;9.70;;;18.50;92.30;;;;;;6225215;22;20071;-85
2021/08/17 11:42:51;;;;;;;15.63;9.85;;;18.50;91.70;;;;;;6276452;22;20641;-88
2021/08/17 11:45:23;;;;;;;20.90;9.77;;;18.50;92.00;;;;;;6250764;22;20012;-86
2021/08/17 11:47:51;;;;;;;20.05;9.57;;;18.40;92.30;;;;;;6226478;22;20391;-87
2021/08/17 11:50:19;;;;;;;20.27;9.23;;;18.30;92.50;;;;;;6252032;22;20503;-87
2021/08/17 11:52:50;;;;;;;20.33;9.50;;;18.30;92.50;;;;;;6226311;22;20015;-87
2021/08/17 11:55:19;;;;;;;15.68;8.02;;;18.20;92.40;;;;;;6276666;22;20037;-88
2021/08/17 11:57:49;;;;;;;19.45;9.13;;;18.20;92.30;;;;;;6250149;22;20343;-88
2021/08/17 12:00:56;;;;;;;16.83;8.63;;;18.20;92.30;;;;;;6251490;22;20347;-88
2021/08/17 12:03:25;;;;;;;20.45;9.38;;;18.10;92.60;;;;;;6152809;23;20028;-89
2021/08/17 12:05:56;;;;;;;18.35;9.05;;;18.10;92.60;;;;;;6179042;23;20009;-87
2021/08/17 12:08:25;;;;;;;21.37;9.33;;;18.20;92.50;;;;;;6166163;23;20001;-90
2021/08/17 12:26:55;;;;;;;16.13;7.28;;;18.40;91.00;;;;;;6212287;23;20025;-86
2021/08/17 12:29:24;;;;;;;18.65;7.25;;;18.40;90.30;;;;;;6159574;23;20041;-87
2021/08/17 12:32:12;;;;;;;15.38;7.50;;;18.40;91.10;;;;;;6162381;23;20452;-87
2021/08/17 12:34:46;;;;;;;14.13;7.82;;;18.40;91.40;;;;;;6183935;23;20008;-87
2021/08/17 12:37:45;;;;;;;21.08;8.85;;;18.40;91.80;;;;;;6184336;23;20016;-87
2021/08/17 12:40:12;;;;;;;17.40;7.25;;;18.50;92.50;;;;;;6111322;23;20027;-87
2021/08/17 12:42:47;;;;;;;17.20;8.07;;;18.50;91.90;;;;;;6136184;23;20016;-89
2021/08/17 12:45:28;;;;;;;16.77;7.97;;;18.50;91.80;;;;;;6158301;23;20024;-85
2021/08/17 12:47:59;;;;;;;14.05;7.60;;;18.50;91.80;;;;;;6158214;23;20013;-88
2021/08/17 12:50:35;;;;;;;16.42;7.63;;;18.40;91.60;;;;;;6136214;23;20009;-86
2021/08/17 12:53:01;;;;;;;16.42;8.07;;;18.20;91.70;;;;;;6210759;23;20017;-88
2021/08/17 12:55:27;;;;;;;16.13;8.05;;;18.10;92.00;;;;;;6110510;23;20013;-86
2021/08/17 12:57:56;;;;;;;13.27;7.10;;;18.00;92.20;;;;;;6159112;23;20012;-88
2021/08/17 13:00:26;;;;;;;15.98;7.60;;;18.00;92.50;;;;;;6135683;23;20013;-85
2021/08/17 13:02:52;;;;;;;13.85;7.20;;;18.00;92.60;;;;;;6159072;23;20015;-85
2021/08/17 13:05:19;;;;;;;15.13;7.00;;;17.90;92.60;;;;;;6158813;23;20017;-85
2021/08/17 13:07:49;;;;;;;15.48;6.90;;;17.90;92.80;;;;;;6135272;23;20205;-86
2021/08/17 13:10:18;;;;;;;12.77;5.95;;;18.00;92.80;;;;;;6135762;23;20009;-88
2021/08/17 13:12:47;;;;;;;12.27;6.00;;;18.00;92.80;;;;;;6172522;23;20023;-86
2021/08/17 13:15:15;;;;;;;9.27;5.30;;;18.00;92.60;;;;;;6160389;23;20012;-85